| time (UTC) | temp F | wind direction | speed MPH | gust MPH | rain 1hr in | rain 24hr in | rain mn in | humidity % | barometer mb |
| 20260508003017 | 52 | 0.0 | 0.0 | 0.00 | 0.02 | 0.02 | 42 | 1008.6 | |
| 20260508000017 | 54 | 0.0 | 1.0 | 0.00 | 0.02 | 0.02 | 35 | 1008.3 | |
| 20260507233016 | 57 | 0.0 | 2.0 | 0.00 | 0.02 | 0.02 | 32 | 1008.3 | |
| 20260507230016 | 58 | 338 | 1.0 | 4.0 | 0.00 | 0.02 | 0.02 | 31 | 1008.0 |
| 20260507223016 | 59 | 23 | 1.0 | 4.0 | 0.00 | 0.02 | 0.02 | 28 | 1008.0 |
| 20260507220017 | 59 | 23 | 1.0 | 5.0 | 0.00 | 0.02 | 0.02 | 29 | 1008.2 |
| 20260507213016 | 60 | 23 | 2.0 | 6.0 | 0.00 | 0.02 | 0.02 | 29 | 1007.9 |
| 20260507210016 | 60 | 23 | 2.0 | 6.0 | 0.00 | 0.02 | 0.02 | 28 | 1007.7 |
| 20260507203016 | 60 | 23 | 1.0 | 6.0 | 0.00 | 0.02 | 0.02 | 28 | 1007.6 |
| 20260507200016 | 60 | 23 | 1.0 | 6.0 | 0.00 | 0.06 | 0.02 | 30 | 1007.8 |
| 20260507193016 | 62 | 23 | 2.0 | 6.0 | 0.00 | 0.07 | 0.02 | 27 | 1008.2 |
| 20260507190018 | 64 | 23 | 2.0 | 6.0 | 0.00 | 0.08 | 0.02 | 25 | 1008.5 |
| 20260507183016 | 64 | 293 | 1.0 | 5.0 | 0.00 | 0.11 | 0.02 | 24 | 1008.6 |
| 20260507180036 | 63 | 45 | 2.0 | 5.0 | 0.00 | 0.13 | 0.02 | 28 | 1008.9 |
| 20260507173016 | 62 | 0 | 1.0 | 5.0 | 0.00 | 0.16 | 0.02 | 31 | 1009.4 |
| 20260507170138 | 60 | 23 | 1.0 | 6.0 | 0.00 | 0.18 | 0.02 | 32 | 1009.7 |
| 20260507163015 | 58 | 68 | 1.0 | 5.0 | 0.00 | 0.21 | 0.02 | 31 | 1010.0 |
| 20260507160015 | 57 | 0 | 1.0 | 4.0 | 0.00 | 0.26 | 0.02 | 35 | 1010.6 |
| 20260507153015 | 56 | 338 | 2.0 | 5.0 | 0.00 | 0.30 | 0.02 | 33 | 1010.9 |
| 20260507150015 | 55 | 68 | 2.0 | 7.0 | 0.00 | 0.31 | 0.02 | 37 | 1011.1 |
| 20260507143015 | 54 | 23 | 2.0 | 6.0 | 0.00 | 0.31 | 0.02 | 39 | 1011.1 |
| 20260507140015 | 53 | 23 | 3.0 | 8.0 | 0.00 | 0.31 | 0.02 | 40 | 1011.4 |
| 20260507133015 | 52 | 23 | 2.0 | 7.0 | 0.00 | 0.31 | 0.02 | 43 | 1011.5 |
| 20260507130016 | 52 | 68 | 2.0 | 5.0 | 0.00 | 0.31 | 0.02 | 54 | 1011.3 |
| 20260507123016 | 52 | 23 | 2.0 | 6.0 | 0.00 | 0.31 | 0.02 | 57 | 1011.2 |
| 20260507120015 | 54 | 0 | 1.0 | 4.0 | 0.00 | 0.31 | 0.02 | 63 | 1011.2 |
| 20260507113015 | 51 | 0.0 | 3.0 | 0.00 | 0.31 | 0.02 | 71 | 1011.0 | |
| 20260507110019 | 48 | 0.0 | 0.0 | 0.01 | 0.31 | 0.02 | 76 | 1010.7 | |
| 20260507103015 | 47 | 0.0 | 0.0 | 0.01 | 0.31 | 0.02 | 76 | 1010.1 | |
| 20260507100016 | 47 | 0.0 | 0.0 | 0.00 | 0.30 | 0.01 | 76 | 1009.6 | |
| 20260507093038 | 47 | 0.0 | 0.0 | 0.00 | 0.30 | 0.01 | 76 | 1009.4 | |
| 20260507090016 | 48 | 0.0 | 0.0 | 0.00 | 0.30 | 0.01 | 76 | 1009.3 | |
| 20260507083017 | 49 | 0.0 | 0.0 | 0.00 | 0.30 | 0.01 | 76 | 1009.7 | |
| 20260507080017 | 49 | 0.0 | 0.0 | 0.00 | 0.30 | 0.01 | 76 | 1009.8 | |
| 20260507073016 | 50 | 0.0 | 0.0 | 0.00 | 0.30 | 0.01 | 76 | 1009.9 | |
| 20260507070017 | 50 | 0.0 | 0.0 | 0.00 | 0.30 | 0.01 | 74 | 1009.5 | |
| 20260507063017 | 50 | 0.0 | 0.0 | 0.01 | 0.30 | 0.01 | 73 | 1009.2 | |
| 20260507060017 | 50 | 0.0 | 2.0 | 0.01 | 0.30 | 0.01 | 72 | 1008.9 | |
| 20260507053016 | 51 | 0.0 | 1.0 | 0.00 | 0.29 | 0.00 | 71 | 1009.0 | |
| 20260507050016 | 51 | 0.0 | 3.0 | 0.00 | 0.29 | 0.00 | 71 | 1009.0 | |
| 20260507043018 | 51 | 0.0 | 2.0 | 0.00 | 0.29 | 0.00 | 71 | 1009.2 | |
| 20260507040017 | 52 | 0 | 1.0 | 3.0 | 0.00 | 0.29 | 0.29 | 71 | 1009.5 |
| 20260507033018 | 52 | 0.0 | 1.0 | 0.00 | 0.29 | 0.29 | 71 | 1009.1 | |
| 20260507030018 | 52 | 0.0 | 1.0 | 0.00 | 0.29 | 0.29 | 71 | 1009.2 | |
| 20260507023017 | 53 | 0.0 | 1.0 | 0.00 | 0.29 | 0.29 | 71 | 1009.6 | |
| 20260507020017 | 53 | 45 | 1.0 | 3.0 | 0.00 | 0.29 | 0.29 | 71 | 1009.4 |
| 20260507013056 | 55 | 23 | 2.0 | 7.0 | 0.00 | 0.29 | 0.29 | 71 | 1008.8 |
| 20260507010016 | 59 | 23 | 1.0 | 5.0 | 0.00 | 0.29 | 0.29 | 72 | 1007.9 |